地図

経路データ

SID SEASON NUMBER BASIN SUBBASIN NAME ISO_TIME NATURE LAT LON WMO_WIND WMO_PRES WMO_AGENCY TRACK_TYPE DIST2LAND LANDFALL IFLAG USA_AGENCY USA_ATCF_ID USA_LAT USA_LON USA_RECORD USA_STATUS USA_WIND USA_PRES USA_SSHS USA_R34_NE USA_R34_SE USA_R34_SW USA_R34_NW USA_R50_NE USA_R50_SE USA_R50_SW USA_R50_NW USA_R64_NE USA_R64_SE USA_R64_SW USA_R64_NW USA_POCI USA_ROCI USA_RMW USA_EYE TOKYO_LAT TOKYO_LON TOKYO_GRADE TOKYO_WIND TOKYO_PRES TOKYO_R50_DIR TOKYO_R50_LONG TOKYO_R50_SHORT TOKYO_R30_DIR TOKYO_R30_LONG TOKYO_R30_SHORT TOKYO_LAND CMA_LAT CMA_LON CMA_CAT CMA_WIND CMA_PRES HKO_LAT HKO_LON HKO_CAT HKO_WIND HKO_PRES NEWDELHI_LAT NEWDELHI_LON NEWDELHI_GRADE NEWDELHI_WIND NEWDELHI_PRES NEWDELHI_CI NEWDELHI_DP NEWDELHI_POCI REUNION_LAT REUNION_LON REUNION_TYPE REUNION_WIND REUNION_PRES REUNION_TNUM REUNION_CI REUNION_RMW REUNION_R34_NE REUNION_R34_SE REUNION_R34_SW REUNION_R34_NW REUNION_R50_NE REUNION_R50_SE REUNION_R50_SW REUNION_R50_NW REUNION_R64_NE REUNION_R64_SE REUNION_R64_SW REUNION_R64_NW BOM_LAT BOM_LON BOM_TYPE BOM_WIND BOM_PRES BOM_TNUM BOM_CI BOM_RMW BOM_R34_NE BOM_R34_SE BOM_R34_SW BOM_R34_NW BOM_R50_NE BOM_R50_SE BOM_R50_SW BOM_R50_NW BOM_R64_NE BOM_R64_SE BOM_R64_SW BOM_R64_NW BOM_ROCI BOM_POCI BOM_EYE BOM_POS_METHOD BOM_PRES_METHOD NADI_LAT NADI_LON NADI_CAT NADI_WIND NADI_PRES WELLINGTON_LAT WELLINGTON_LON WELLINGTON_WIND WELLINGTON_PRES DS824_LAT DS824_LON DS824_STAGE DS824_WIND DS824_PRES TD9636_LAT TD9636_LON TD9636_STAGE TD9636_WIND TD9636_PRES TD9635_LAT TD9635_LON TD9635_WIND TD9635_PRES TD9635_ROCI NEUMANN_LAT NEUMANN_LON NEUMANN_CLASS NEUMANN_WIND NEUMANN_PRES MLC_LAT MLC_LON MLC_CLASS MLC_WIND MLC_PRES USA_GUST BOM_GUST BOM_GUST_PER REUNION_GUST REUNION_GUST_PER USA_SEAHGT USA_SEARAD_NE USA_SEARAD_SE USA_SEARAD_SW USA_SEARAD_NW STORM_SPEED STORM_DIR
1957013S13042 1957 5 SI MM NOT_NAMED 1957-01-13 06:00:00 TS -13.0000 42.1000 main 164 162 O________OO___ jtwc_sh SH121957 -13.0000 42.1000 -1 -13.0000 42.1000 TC 25 -13.0000 42.1000 7 8 176
1957013S13042 1957 5 SI MM NOT_NAMED 1957-01-13 09:00:00 TS -13.4101 42.1463 main 162 162 P________PP___ SH121957 -13.4050 42.1599 -1 -13.4050 42.1599 TC 25 -13.4203 42.1190 7 8 174
1957013S13042 1957 5 SI MM NOT_NAMED 1957-01-13 12:00:00 TS -13.8075 42.1802 main 170 154 O________OP___ jtwc_sh SH121957 -13.8000 42.2000 -1 -13.8000 42.2000 TC 25 -13.8226 42.1405 7 8 176
1957013S13042 1957 5 SI MM NOT_NAMED 1957-01-13 15:00:00 TS -14.1778 42.1939 main 154 150 P________PP___ SH121957 -14.1725 42.2075 -1 -14.1725 42.2075 TC 25 -14.1885 42.1667 7 7 0
1957013S13042 1957 5 SI MM NOT_NAMED 1957-01-13 18:00:00 TS -14.5000 42.2000 main 150 150 O________OO___ jtwc_sh SH121957 -14.5000 42.2000 -1 -14.5000 42.2000 TC 25 -14.5000 42.2000 1 6 0
1957013S13042 1957 5 SI MM NOT_NAMED 1957-01-13 21:00:00 TS -14.7553 42.2174 main 150 150 P________PP___ SH121957 -14.7575 42.2075 -1 -14.7575 42.2075 TC 25 -14.7508 42.2373 1 5 179
1957013S13042 1957 5 SI MM NOT_NAMED 1957-01-14 00:00:00 TS -14.9941 42.2179 main 150 150 O________OP___ jtwc_sh SH121957 -15.0000 42.2000 -1 -15.0000 42.2000 TC 25 -14.9822 42.2536 1 5 182
1957013S13042 1957 5 SI MM NOT_NAMED 1957-01-14 03:00:00 TS -15.2475 42.1975 main 152 150 P________PP___ SH121957 -15.2475 42.1873 -1 -15.2475 42.1873 TC 25 -15.2476 42.2181 1 6 191
1957013S13042 1957 5 SI MM NOT_NAMED 1957-01-14 06:00:00 TS -15.6000 42.1000 main 154 154 O________OO___ jtwc_sh SH121957 -15.6000 42.1000 -1 -15.6000 42.1000 TC 25 -15.6000 42.1000 1 10 198
1957013S13042 1957 5 SI MM NOT_NAMED 1957-01-14 09:00:00 TS -16.1470 41.8931 main 159 156 P________PP___ SH121957 -16.1550 41.9024 -1 -16.1550 41.9024 TC 25 -16.1311 41.8743 1 13 203
1957013S13042 1957 5 SI MM NOT_NAMED 1957-01-14 12:00:00 TS -16.7826 41.5879 main 177 177 O________OP___ jtwc_sh SH121957 -16.8000 41.6000 -1 -16.8000 41.6000 TC 25 -16.7477 41.5636 1 14 207
1957013S13042 1957 5 SI MM NOT_NAMED 1957-01-14 15:00:00 TS -17.4118 41.2137 main 179 177 P________PP___ SH121957 -17.4225 41.2226 -1 -17.4225 41.2226 TC 25 -17.3904 41.1960 1 14 212
1957013S13042 1957 5 SI MM NOT_NAMED 1957-01-14 18:00:00 TS -18.0000 40.8000 main 198 198 O________OO___ jtwc_sh SH121957 -18.0000 40.8000 -1 -18.0000 40.8000 TC 25 -18.0000 40.8000 1 13 216
1957013S13042 1957 5 SI MM NOT_NAMED 1957-01-14 21:00:00 TS -18.4807 40.3974 main 217 217 P________PP___ SH121957 -18.4724 40.3996 -1 -18.4724 40.3996 TC 25 -18.4974 40.3931 1 12 220
1957013S13042 1957 5 SI MM NOT_NAMED 1957-01-15 00:00:00 TS -18.9176 39.9900 main 232 232 O________OP___ jtwc_sh SH121957 -18.9000 40.0000 -1 -18.9000 40.0000 TC 25 -18.9529 39.9700 1 12 221
1957013S13042 1957 5 SI MM NOT_NAMED 1957-01-15 03:00:00 TS -19.3656 39.5773 main 273 270 P________PP___ SH121957 -19.3575 39.5850 -1 -19.3575 39.5850 TC 25 -19.3819 39.5619 1 12 220
1957013S13042 1957 5 SI MM NOT_NAMED 1957-01-15 06:00:00 TS -19.8000 39.2000 main 299 298 O________OO___ jtwc_sh SH121957 -19.8000 39.2000 -1 -19.8000 39.2000 TC 25 -19.8000 39.2000 1 11 218
1957013S13042 1957 5 SI MM NOT_NAMED 1957-01-15 09:00:00 TS -20.2025 38.8734 main 306 299 P________PP___ SH121957 -20.2000 38.8623 -1 -20.2000 38.8623 TC 25 -20.2075 38.8956 1 10 214
1957013S13042 1957 5 SI MM NOT_NAMED 1957-01-15 12:00:00 TS -20.6041 38.6148 main 306 305 O________OP___ jtwc_sh SH121957 -20.6000 38.6000 -1 -20.6000 38.6000 TC 25 -20.6122 38.6444 1 9 207
1957013S13042 1957 5 SI MM NOT_NAMED 1957-01-15 15:00:00 TS -21.0252 38.4235 main 321 299 P________PP___ SH121957 -21.0199 38.4124 -1 -21.0199 38.4124 TC 25 -21.0358 38.4459 1 9 198
1957013S13042 1957 5 SI MM NOT_NAMED 1957-01-15 18:00:00 TS -21.5000 38.3000 main 299 278 O________OO___ jtwc_sh SH121957 -21.5000 38.3000 -1 -21.5000 38.3000 TC 25 -21.5000 38.3000 1 11 190
1957013S13042 1957 5 SI MM NOT_NAMED 1957-01-15 21:00:00 TS -22.0794 38.2202 main 278 267 P________PP___ SH121957 -22.0850 38.2348 -1 -22.0850 38.2348 TC 25 -22.0682 38.1910 1 12 185
1957013S13042 1957 5 SI MM NOT_NAMED 1957-01-16 00:00:00 TS -22.6908 38.1773 main 267 256 O________OP___ jtwc_sh SH121957 -22.7000 38.2000 -1 -22.7000 38.2000 TC 25 -22.6723 38.1318 1 12 184
1957013S13042 1957 5 SI MM NOT_NAMED 1957-01-16 03:00:00 TS -23.2801 38.1306 main 259 259 P________PP___ SH121957 -23.2875 38.1426 -1 -23.2875 38.1426 TC 25 -23.2652 38.1068 1 11 184
1957013S13042 1957 5 SI MM NOT_NAMED 1957-01-16 06:00:00 TS -23.8000 38.1000 main 264 263 O________OO___ jtwc_sh SH121957 -23.8000 38.1000 -1 -23.8000 38.1000 TC 25 -23.8000 38.1000 1 9 182
1957013S13042 1957 5 SI MM NOT_NAMED 1957-01-16 09:00:00 TS -24.1902 38.0887 main 263 263 P________PP___ SH121957 -24.1800 38.0924 -1 -24.1800 38.0924 TC 25 -24.2105 38.0814 1 7 0
1957013S13042 1957 5 SI MM NOT_NAMED 1957-01-16 12:00:00 TS -24.5200 38.0924 main 267 267 O________OP___ jtwc_sh SH121957 -24.5000 38.1000 -1 -24.5000 38.1000 TC 25 -24.5599 38.0773 1 7 0
1957013S13042 1957 5 SI MM NOT_NAMED 1957-01-16 15:00:00 TS -24.8598 38.0949 main 277 277 P________PP___ SH121957 -24.8500 38.1000 -1 -24.8500 38.1000 TC 25 -24.8793 38.0846 1 7 0
1957013S13042 1957 5 SI MM NOT_NAMED 1957-01-16 18:00:00 TS -25.2000 38.1000 main 289 289 O________OO___ jtwc_sh SH121957 -25.2000 38.1000 -1 -25.2000 38.1000 TC 25 -25.2000 38.1000 1 7 179
1957013S13042 1957 5 SI MM NOT_NAMED 1957-01-16 21:00:00 TS -25.5439 38.1019 main 305 305 P________PP___ SH121957 -25.5425 38.0926 -1 -25.5425 38.0926 TC 25 -25.5466 38.1206 1 7 0
1957013S13042 1957 5 SI MM NOT_NAMED 1957-01-17 00:00:00 TS -25.9059 38.1150 main 330 330 O________OP___ jtwc_sh SH121957 -25.9000 38.1000 -1 -25.9000 38.1000 TC 25 -25.9176 38.1449 1 8 178
1957013S13042 1957 5 SI MM NOT_NAMED 1957-01-17 03:00:00 TS -26.2949 38.1505 main 364 364 P________PP___ SH121957 -26.2900 38.1399 -1 -26.2900 38.1399 TC 25 -26.3048 38.1718 1 8 174
1957013S13042 1957 5 SI MM NOT_NAMED 1957-01-17 06:00:00 TS -26.7000 38.2000 main 389 O________OO___ jtwc_sh SH121957 -26.7000 38.2000 -1 -26.7000 38.2000 TC 25 -26.7000 38.2000 1 8 174

IBTrACS Databaseについて

本データベースは、米国NOAAが公開する1842年以降の世界の熱帯低気圧のベストトラックデータアーカイブInternational Best Track Archive for Climate Stewardship (IBTrACS)を、ウェブで閲覧しやすい形式に変換したものです。

最終更新日:2021-11-26